sensor_id;sensor_type;location;lat;lon;timestamp;temperature;humidity
52669;DHT22;59898;52.786;6.892;2023-04-03T00:01:45;3.70;99.90
52669;DHT22;59898;52.786;6.892;2023-04-03T00:05:06;3.60;99.90
52669;DHT22;59898;52.786;6.892;2023-04-03T00:08:27;3.60;99.90
52669;DHT22;59898;52.786;6.892;2023-04-03T00:11:50;4.00;99.90
52669;DHT22;59898;52.786;6.892;2023-04-03T00:15:11;3.50;99.90
52669;DHT22;59898;52.786;6.892;2023-04-03T00:18:32;3.40;99.90
52669;DHT22;59898;52.786;6.892;2023-04-03T00:21:53;3.40;99.90
52669;DHT22;59898;52.786;6.892;2023-04-03T00:25:14;3.30;99.90
52669;DHT22;59898;52.786;6.892;2023-04-03T00:28:34;3.30;99.90
52669;DHT22;59898;52.786;6.892;2023-04-03T00:31:55;3.30;99.90
52669;DHT22;59898;52.786;6.892;2023-04-03T00:35:17;3.30;99.90
52669;DHT22;59898;52.786;6.892;2023-04-03T00:38:38;3.20;99.90
52669;DHT22;59898;52.786;6.892;2023-04-03T00:41:58;3.20;99.90
52669;DHT22;59898;52.786;6.892;2023-04-03T00:45:53;3.20;99.90
52669;DHT22;59898;52.786;6.892;2023-04-03T00:49:14;3.20;99.90
52669;DHT22;59898;52.786;6.892;2023-04-03T00:52:36;3.10;99.90
52669;DHT22;59898;52.786;6.892;2023-04-03T00:55:58;3.80;99.90
52669;DHT22;59898;52.786;6.892;2023-04-03T00:59:24;3.10;99.90
52669;DHT22;59898;52.786;6.892;2023-04-03T01:02:46;3.10;99.90
52669;DHT22;59898;52.786;6.892;2023-04-03T01:06:07;3.10;99.90
52669;DHT22;59898;52.786;6.892;2023-04-03T01:09:28;3.00;99.90
52669;DHT22;59898;52.786;6.892;2023-04-03T01:12:50;3.00;99.90
52669;DHT22;59898;52.786;6.892;2023-04-03T01:16:11;2.90;99.90
52669;DHT22;59898;52.786;6.892;2023-04-03T01:19:32;3.20;99.90
52669;DHT22;59898;52.786;6.892;2023-04-03T01:26:30;2.80;99.90
52669;DHT22;59898;52.786;6.892;2023-04-03T01:29:51;3.00;99.90
52669;DHT22;59898;52.786;6.892;2023-04-03T01:33:12;2.80;99.90
52669;DHT22;59898;52.786;6.892;2023-04-03T01:36:33;2.80;99.90
52669;DHT22;59898;52.786;6.892;2023-04-03T01:39:53;2.70;99.90
52669;DHT22;59898;52.786;6.892;2023-04-03T01:43:14;2.80;99.90
52669;DHT22;59898;52.786;6.892;2023-04-03T01:46:35;3.10;99.90
52669;DHT22;59898;52.786;6.892;2023-04-03T01:49:55;2.70;99.90
52669;DHT22;59898;52.786;6.892;2023-04-03T01:53:16;2.60;99.90
52669;DHT22;59898;52.786;6.892;2023-04-03T01:56:37;2.60;99.90
52669;DHT22;59898;52.786;6.892;2023-04-03T01:59:59;2.90;99.90
52669;DHT22;59898;52.786;6.892;2023-04-03T02:03:20;2.60;99.90
52669;DHT22;59898;52.786;6.892;2023-04-03T02:06:41;2.50;99.90
52669;DHT22;59898;52.786;6.892;2023-04-03T02:10:02;2.50;99.90
52669;DHT22;59898;52.786;6.892;2023-04-03T02:13:22;2.40;99.90
52669;DHT22;59898;52.786;6.892;2023-04-03T02:16:43;2.40;99.90
52669;DHT22;59898;52.786;6.892;2023-04-03T02:20:04;2.30;99.90
52669;DHT22;59898;52.786;6.892;2023-04-03T02:23:25;2.30;99.90
52669;DHT22;59898;52.786;6.892;2023-04-03T02:26:46;2.30;99.90
52669;DHT22;59898;52.786;6.892;2023-04-03T02:30:07;2.30;99.90
52669;DHT22;59898;52.786;6.892;2023-04-03T02:33:30;2.30;99.90
52669;DHT22;59898;52.786;6.892;2023-04-03T02:36:51;2.20;99.90
52669;DHT22;59898;52.786;6.892;2023-04-03T02:40:11;2.20;99.90
52669;DHT22;59898;52.786;6.892;2023-04-03T02:43:33;2.20;99.90
52669;DHT22;59898;52.786;6.892;2023-04-03T02:46:53;2.20;99.90
52669;DHT22;59898;52.786;6.892;2023-04-03T02:50:14;2.20;99.90
52669;DHT22;59898;52.786;6.892;2023-04-03T02:53:35;2.20;99.90
52669;DHT22;59898;52.786;6.892;2023-04-03T02:56:56;2.10;99.90
52669;DHT22;59898;52.786;6.892;2023-04-03T03:00:17;2.10;99.90
52669;DHT22;59898;52.786;6.892;2023-04-03T03:03:38;2.00;99.90
52669;DHT22;59898;52.786;6.892;2023-04-03T03:06:59;2.00;99.90
52669;DHT22;59898;52.786;6.892;2023-04-03T03:10:20;2.50;99.90
52669;DHT22;59898;52.786;6.892;2023-04-03T03:13:40;2.30;99.90
52669;DHT22;59898;52.786;6.892;2023-04-03T03:17:01;1.90;99.90
52669;DHT22;59898;52.786;6.892;2023-04-03T03:20:22;1.90;99.90
52669;DHT22;59898;52.786;6.892;2023-04-03T03:23:42;1.90;99.90
52669;DHT22;59898;52.786;6.892;2023-04-03T03:27:03;1.80;99.90
52669;DHT22;59898;52.786;6.892;2023-04-03T03:30:24;1.90;99.90
52669;DHT22;59898;52.786;6.892;2023-04-03T03:33:45;1.80;99.90
52669;DHT22;59898;52.786;6.892;2023-04-03T03:37:06;2.50;99.90
52669;DHT22;59898;52.786;6.892;2023-04-03T03:40:26;1.70;99.90
52669;DHT22;59898;52.786;6.892;2023-04-03T03:43:47;1.70;99.90
52669;DHT22;59898;52.786;6.892;2023-04-03T03:47:08;1.70;99.90
52669;DHT22;59898;52.786;6.892;2023-04-03T03:50:31;1.70;99.90
52669;DHT22;59898;52.786;6.892;2023-04-03T03:53:51;2.00;99.90
52669;DHT22;59898;52.786;6.892;2023-04-03T03:57:12;1.50;99.90
52669;DHT22;59898;52.786;6.892;2023-04-03T04:00:33;1.50;99.90
52669;DHT22;59898;52.786;6.892;2023-04-03T04:03:54;1.40;99.90
52669;DHT22;59898;52.786;6.892;2023-04-03T04:07:15;1.30;99.90
52669;DHT22;59898;52.786;6.892;2023-04-03T04:10:37;1.30;99.90
52669;DHT22;59898;52.786;6.892;2023-04-03T04:13:58;1.30;99.90
52669;DHT22;59898;52.786;6.892;2023-04-03T04:17:19;1.60;99.90
52669;DHT22;59898;52.786;6.892;2023-04-03T04:20:40;1.20;99.90
52669;DHT22;59898;52.786;6.892;2023-04-03T04:24:00;1.40;99.90
52669;DHT22;59898;52.786;6.892;2023-04-03T04:27:21;1.40;99.90
52669;DHT22;59898;52.786;6.892;2023-04-03T04:30:42;0.80;99.90
52669;DHT22;59898;52.786;6.892;2023-04-03T04:34:03;1.10;99.90
52669;DHT22;59898;52.786;6.892;2023-04-03T04:37:23;1.70;99.90
52669;DHT22;59898;52.786;6.892;2023-04-03T04:40:44;1.00;99.90
52669;DHT22;59898;52.786;6.892;2023-04-03T04:44:05;1.50;99.90
52669;DHT22;59898;52.786;6.892;2023-04-03T04:47:25;1.00;99.90
52669;DHT22;59898;52.786;6.892;2023-04-03T04:50:48;0.90;99.90
52669;DHT22;59898;52.786;6.892;2023-04-03T04:54:08;1.00;99.90
52669;DHT22;59898;52.786;6.892;2023-04-03T04:57:29;1.10;99.90
52669;DHT22;59898;52.786;6.892;2023-04-03T05:00:50;0.80;99.90
52669;DHT22;59898;52.786;6.892;2023-04-03T05:04:18;1.00;99.90
52669;DHT22;59898;52.786;6.892;2023-04-03T05:07:38;2.00;99.90
52669;DHT22;59898;52.786;6.892;2023-04-03T05:10:59;0.90;99.90
52669;DHT22;59898;52.786;6.892;2023-04-03T05:14:20;0.80;99.90
52669;DHT22;59898;52.786;6.892;2023-04-03T05:17:41;0.90;99.90
52669;DHT22;59898;52.786;6.892;2023-04-03T05:21:01;0.90;99.90
52669;DHT22;59898;52.786;6.892;2023-04-03T05:24:22;0.90;99.90
52669;DHT22;59898;52.786;6.892;2023-04-03T05:27:43;0.80;99.90
52669;DHT22;59898;52.786;6.892;2023-04-03T05:31:03;1.30;99.90
52669;DHT22;59898;52.786;6.892;2023-04-03T05:34:24;1.20;99.90
52669;DHT22;59898;52.786;6.892;2023-04-03T05:37:45;0.80;99.90
52669;DHT22;59898;52.786;6.892;2023-04-03T05:41:05;0.80;99.90
52669;DHT22;59898;52.786;6.892;2023-04-03T05:44:26;0.90;99.90
52669;DHT22;59898;52.786;6.892;2023-04-03T05:47:47;0.90;99.90
52669;DHT22;59898;52.786;6.892;2023-04-03T05:51:23;1.00;99.90
52669;DHT22;59898;52.786;6.892;2023-04-03T05:54:46;1.20;99.90
52669;DHT22;59898;52.786;6.892;2023-04-03T05:58:08;1.10;99.90
52669;DHT22;59898;52.786;6.892;2023-04-03T06:01:29;1.10;99.90
52669;DHT22;59898;52.786;6.892;2023-04-03T06:04:50;1.20;99.90
52669;DHT22;59898;52.786;6.892;2023-04-03T06:08:11;1.30;99.90
52669;DHT22;59898;52.786;6.892;2023-04-03T06:11:32;1.90;99.90
52669;DHT22;59898;52.786;6.892;2023-04-03T06:14:53;1.40;99.90
52669;DHT22;59898;52.786;6.892;2023-04-03T06:18:14;1.60;99.90
52669;DHT22;59898;52.786;6.892;2023-04-03T06:21:34;2.20;99.90
52669;DHT22;59898;52.786;6.892;2023-04-03T06:24:57;1.70;99.90
52669;DHT22;59898;52.786;6.892;2023-04-03T06:28:17;1.90;99.90
52669;DHT22;59898;52.786;6.892;2023-04-03T06:31:40;1.80;99.90
52669;DHT22;59898;52.786;6.892;2023-04-03T06:35:01;1.90;99.90
52669;DHT22;59898;52.786;6.892;2023-04-03T06:38:21;2.10;99.90
52669;DHT22;59898;52.786;6.892;2023-04-03T06:41:43;2.20;99.90
52669;DHT22;59898;52.786;6.892;2023-04-03T06:45:04;2.30;99.90
52669;DHT22;59898;52.786;6.892;2023-04-03T06:48:26;2.50;99.90
52669;DHT22;59898;52.786;6.892;2023-04-03T06:51:47;2.60;99.90
52669;DHT22;59898;52.786;6.892;2023-04-03T06:55:08;2.80;99.90
52669;DHT22;59898;52.786;6.892;2023-04-03T06:58:29;2.80;99.90
52669;DHT22;59898;52.786;6.892;2023-04-03T07:01:50;3.00;99.90
52669;DHT22;59898;52.786;6.892;2023-04-03T07:05:11;3.10;99.90
52669;DHT22;59898;52.786;6.892;2023-04-03T07:08:32;3.20;99.90
52669;DHT22;59898;52.786;6.892;2023-04-03T07:11:53;3.30;99.90
52669;DHT22;59898;52.786;6.892;2023-04-03T07:15:14;4.00;99.90
52669;DHT22;59898;52.786;6.892;2023-04-03T07:18:36;3.50;99.90
52669;DHT22;59898;52.786;6.892;2023-04-03T07:21:56;3.60;99.90
52669;DHT22;59898;52.786;6.892;2023-04-03T07:25:17;3.80;99.90
52669;DHT22;59898;52.786;6.892;2023-04-03T07:28:38;3.90;99.90
52669;DHT22;59898;52.786;6.892;2023-04-03T07:32:01;4.10;99.90
52669;DHT22;59898;52.786;6.892;2023-04-03T07:35:21;4.30;99.90
52669;DHT22;59898;52.786;6.892;2023-04-03T07:38:42;4.40;99.90
52669;DHT22;59898;52.786;6.892;2023-04-03T07:42:03;4.70;99.90
52669;DHT22;59898;52.786;6.892;2023-04-03T07:45:24;4.80;99.90
52669;DHT22;59898;52.786;6.892;2023-04-03T07:48:45;5.00;99.90
52669;DHT22;59898;52.786;6.892;2023-04-03T07:52:06;4.90;99.90
52669;DHT22;59898;52.786;6.892;2023-04-03T07:55:29;5.00;99.90
52669;DHT22;59898;52.786;6.892;2023-04-03T07:58:49;5.10;99.90
52669;DHT22;59898;52.786;6.892;2023-04-03T08:02:11;5.30;99.90
52669;DHT22;59898;52.786;6.892;2023-04-03T08:05:31;5.40;99.90
52669;DHT22;59898;52.786;6.892;2023-04-03T08:08:56;5.40;99.90
52669;DHT22;59898;52.786;6.892;2023-04-03T08:12:17;5.40;99.90
52669;DHT22;59898;52.786;6.892;2023-04-03T08:15:38;6.00;99.90
52669;DHT22;59898;52.786;6.892;2023-04-03T08:18:58;5.70;99.90
52669;DHT22;59898;52.786;6.892;2023-04-03T08:22:19;5.80;99.90
52669;DHT22;59898;52.786;6.892;2023-04-03T08:25:41;6.00;99.90
52669;DHT22;59898;52.786;6.892;2023-04-03T08:29:02;6.10;99.90
52669;DHT22;59898;52.786;6.892;2023-04-03T08:32:23;6.20;99.90
52669;DHT22;59898;52.786;6.892;2023-04-03T08:35:44;6.40;99.90
52669;DHT22;59898;52.786;6.892;2023-04-03T08:39:05;6.50;99.80
52669;DHT22;59898;52.786;6.892;2023-04-03T08:45:55;6.70;99.20
52669;DHT22;59898;52.786;6.892;2023-04-03T08:52:59;7.00;96.90
52669;DHT22;59898;52.786;6.892;2023-04-03T08:56:24;7.00;97.80
52669;DHT22;59898;52.786;6.892;2023-04-03T08:59:46;6.40;97.00
52669;DHT22;59898;52.786;6.892;2023-04-03T09:03:15;7.10;96.20
52669;DHT22;59898;52.786;6.892;2023-04-03T09:06:38;7.20;96.50
52669;DHT22;59898;52.786;6.892;2023-04-03T09:10:00;7.30;96.40
52669;DHT22;59898;52.786;6.892;2023-04-03T09:21:03;7.60;94.20
52669;DHT22;59898;52.786;6.892;2023-04-03T09:24:28;7.80;93.50
52669;DHT22;59898;52.786;6.892;2023-04-03T09:27:51;8.00;94.50
52669;DHT22;59898;52.786;6.892;2023-04-03T09:31:21;8.20;94.20
52669;DHT22;59898;52.786;6.892;2023-04-03T09:34:43;8.20;94.20
52669;DHT22;59898;52.786;6.892;2023-04-03T09:41:31;8.50;92.40
52669;DHT22;59898;52.786;6.892;2023-04-03T09:45:24;8.60;91.70
52669;DHT22;59898;52.786;6.892;2023-04-03T09:48:57;8.70;91.40
52669;DHT22;59898;52.786;6.892;2023-04-03T09:52:26;8.90;91.30
52669;DHT22;59898;52.786;6.892;2023-04-03T09:55:47;9.00;91.10
52669;DHT22;59898;52.786;6.892;2023-04-03T09:59:13;9.20;90.80
52669;DHT22;59898;52.786;6.892;2023-04-03T10:02:40;9.30;90.00
52669;DHT22;59898;52.786;6.892;2023-04-03T10:06:03;9.30;88.70
52669;DHT22;59898;52.786;6.892;2023-04-03T10:09:29;9.40;88.50
52669;DHT22;59898;52.786;6.892;2023-04-03T10:13:10;9.50;87.70
52669;DHT22;59898;52.786;6.892;2023-04-03T10:23:59;9.50;84.20
52669;DHT22;59898;52.786;6.892;2023-04-03T10:31:32;9.80;84.70
52669;DHT22;59898;52.786;6.892;2023-04-03T10:35:16;9.90;80.30
52669;DHT22;59898;52.786;6.892;2023-04-03T10:38:46;9.80;80.40
52669;DHT22;59898;52.786;6.892;2023-04-03T10:42:23;9.90;81.00
52669;DHT22;59898;52.786;6.892;2023-04-03T10:57:03;10.30;79.10
52669;DHT22;59898;52.786;6.892;2023-04-03T11:03:54;10.20;80.40
52669;DHT22;59898;52.786;6.892;2023-04-03T11:07:47;10.40;79.60
52669;DHT22;59898;52.786;6.892;2023-04-03T11:11:21;10.30;76.50
52669;DHT22;59898;52.786;6.892;2023-04-03T11:14:43;10.20;78.80
52669;DHT22;59898;52.786;6.892;2023-04-03T11:18:09;10.30;79.50
52669;DHT22;59898;52.786;6.892;2023-04-03T11:25:25;10.40;78.30
52669;DHT22;59898;52.786;6.892;2023-04-03T11:28:52;10.40;79.40
52669;DHT22;59898;52.786;6.892;2023-04-03T11:35:50;10.70;77.90
52669;DHT22;59898;52.786;6.892;2023-04-03T11:39:26;10.80;76.90
52669;DHT22;59898;52.786;6.892;2023-04-03T11:42:52;10.80;73.80
52669;DHT22;59898;52.786;6.892;2023-04-03T11:46:14;10.70;75.30
52669;DHT22;59898;52.786;6.892;2023-04-03T11:53:34;10.80;74.80
52669;DHT22;59898;52.786;6.892;2023-04-03T11:56:55;10.90;74.90
52669;DHT22;59898;52.786;6.892;2023-04-03T12:04:10;11.10;77.90
52669;DHT22;59898;52.786;6.892;2023-04-03T12:07:34;11.40;76.80
52669;DHT22;59898;52.786;6.892;2023-04-03T12:14:41;11.50;77.20
52669;DHT22;59898;52.786;6.892;2023-04-03T12:22:15;11.60;74.20
52669;DHT22;59898;52.786;6.892;2023-04-03T12:25:50;11.30;75.70
52669;DHT22;59898;52.786;6.892;2023-04-03T12:36:49;11.60;76.50
52669;DHT22;59898;52.786;6.892;2023-04-03T12:47:44;11.70;76.80
52669;DHT22;59898;52.786;6.892;2023-04-03T12:51:05;11.70;75.10
52669;DHT22;59898;52.786;6.892;2023-04-03T12:54:37;11.80;74.70
52669;DHT22;59898;52.786;6.892;2023-04-03T12:58:27;11.70;74.40
52669;DHT22;59898;52.786;6.892;2023-04-03T13:01:58;11.60;73.50
52669;DHT22;59898;52.786;6.892;2023-04-03T13:05:21;11.60;73.90
52669;DHT22;59898;52.786;6.892;2023-04-03T13:08:55;11.60;73.80
52669;DHT22;59898;52.786;6.892;2023-04-03T13:12:20;11.70;75.10
52669;DHT22;59898;52.786;6.892;2023-04-03T13:15:47;12.10;75.40
52669;DHT22;59898;52.786;6.892;2023-04-03T13:19:18;12.10;74.60
52669;DHT22;59898;52.786;6.892;2023-04-03T13:22:49;12.10;74.30
52669;DHT22;59898;52.786;6.892;2023-04-03T13:26:12;12.20;75.10
52669;DHT22;59898;52.786;6.892;2023-04-03T13:29:37;12.20;73.80
52669;DHT22;59898;52.786;6.892;2023-04-03T13:33:02;12.00;73.40
52669;DHT22;59898;52.786;6.892;2023-04-03T13:36:30;12.00;74.30
52669;DHT22;59898;52.786;6.892;2023-04-03T13:43:31;12.10;72.90
52669;DHT22;59898;52.786;6.892;2023-04-03T13:50:28;12.00;74.20
52669;DHT22;59898;52.786;6.892;2023-04-03T13:53:58;12.00;72.80
52669;DHT22;59898;52.786;6.892;2023-04-03T13:57:20;12.00;73.90
52669;DHT22;59898;52.786;6.892;2023-04-03T14:00:50;12.10;73.30
52669;DHT22;59898;52.786;6.892;2023-04-03T14:04:19;12.30;73.30
52669;DHT22;59898;52.786;6.892;2023-04-03T14:07:40;12.30;72.90
52669;DHT22;59898;52.786;6.892;2023-04-03T14:11:01;12.10;72.30
52669;DHT22;59898;52.786;6.892;2023-04-03T14:14:26;12.00;72.70
52669;DHT22;59898;52.786;6.892;2023-04-03T14:17:47;12.10;73.10
52669;DHT22;59898;52.786;6.892;2023-04-03T14:21:11;12.00;72.40
52669;DHT22;59898;52.786;6.892;2023-04-03T14:24:32;11.90;72.00
52669;DHT22;59898;52.786;6.892;2023-04-03T14:27:53;11.90;72.00
52669;DHT22;59898;52.786;6.892;2023-04-03T14:31:15;12.50;71.90
52669;DHT22;59898;52.786;6.892;2023-04-03T14:34:36;11.80;72.00
52669;DHT22;59898;52.786;6.892;2023-04-03T14:37:57;11.80;72.00
52669;DHT22;59898;52.786;6.892;2023-04-03T14:41:20;11.80;72.70
52669;DHT22;59898;52.786;6.892;2023-04-03T14:44:41;11.80;72.00
52669;DHT22;59898;52.786;6.892;2023-04-03T14:48:03;12.10;73.20
52669;DHT22;59898;52.786;6.892;2023-04-03T14:51:24;12.20;72.50
52669;DHT22;59898;52.786;6.892;2023-04-03T14:54:45;12.30;71.60
52669;DHT22;59898;52.786;6.892;2023-04-03T14:58:07;12.00;70.60
52669;DHT22;59898;52.786;6.892;2023-04-03T15:01:28;11.70;71.30
52669;DHT22;59898;52.786;6.892;2023-04-03T15:04:49;11.90;72.50
52669;DHT22;59898;52.786;6.892;2023-04-03T15:08:23;11.80;72.00
52669;DHT22;59898;52.786;6.892;2023-04-03T15:11:44;11.90;71.20
52669;DHT22;59898;52.786;6.892;2023-04-03T15:15:06;11.80;71.80
52669;DHT22;59898;52.786;6.892;2023-04-03T15:18:28;11.70;71.40
52669;DHT22;59898;52.786;6.892;2023-04-03T15:21:51;11.80;71.50
52669;DHT22;59898;52.786;6.892;2023-04-03T15:25:12;11.60;70.60
52669;DHT22;59898;52.786;6.892;2023-04-03T15:28:37;11.50;70.40
52669;DHT22;59898;52.786;6.892;2023-04-03T15:31:58;11.30;70.40
52669;DHT22;59898;52.786;6.892;2023-04-03T15:35:19;11.20;71.00
52669;DHT22;59898;52.786;6.892;2023-04-03T15:38:39;11.30;72.00
52669;DHT22;59898;52.786;6.892;2023-04-03T15:42:00;11.30;72.20
52669;DHT22;59898;52.786;6.892;2023-04-03T15:45:29;11.40;72.00
52669;DHT22;59898;52.786;6.892;2023-04-03T15:48:50;11.30;71.60
52669;DHT22;59898;52.786;6.892;2023-04-03T15:52:11;11.20;71.70
52669;DHT22;59898;52.786;6.892;2023-04-03T15:55:35;11.40;72.20
52669;DHT22;59898;52.786;6.892;2023-04-03T15:58:56;11.50;72.40
52669;DHT22;59898;52.786;6.892;2023-04-03T16:02:16;11.60;71.80
52669;DHT22;59898;52.786;6.892;2023-04-03T16:05:38;11.40;72.60
52669;DHT22;59898;52.786;6.892;2023-04-03T16:09:00;11.30;72.00
52669;DHT22;59898;52.786;6.892;2023-04-03T16:12:21;11.00;71.60
52669;DHT22;59898;52.786;6.892;2023-04-03T16:15:42;10.90;71.80
52669;DHT22;59898;52.786;6.892;2023-04-03T16:19:04;10.70;71.60
52669;DHT22;59898;52.786;6.892;2023-04-03T16:22:26;10.70;72.40
52669;DHT22;59898;52.786;6.892;2023-04-03T16:25:48;10.80;72.40
52669;DHT22;59898;52.786;6.892;2023-04-03T16:29:10;10.90;72.60
52669;DHT22;59898;52.786;6.892;2023-04-03T16:32:31;10.80;73.40
52669;DHT22;59898;52.786;6.892;2023-04-03T16:35:52;10.70;72.50
52669;DHT22;59898;52.786;6.892;2023-04-03T16:39:13;10.60;72.60
52669;DHT22;59898;52.786;6.892;2023-04-03T16:42:33;10.60;73.20
52669;DHT22;59898;52.786;6.892;2023-04-03T16:45:54;10.50;73.10
52669;DHT22;59898;52.786;6.892;2023-04-03T16:49:15;10.40;73.10
52669;DHT22;59898;52.786;6.892;2023-04-03T16:52:36;10.40;73.20
52669;DHT22;59898;52.786;6.892;2023-04-03T16:55:58;10.40;73.60
52669;DHT22;59898;52.786;6.892;2023-04-03T16:59:20;10.60;74.20
52669;DHT22;59898;52.786;6.892;2023-04-03T17:02:40;10.80;74.30
52669;DHT22;59898;52.786;6.892;2023-04-03T17:06:01;10.70;73.60
52669;DHT22;59898;52.786;6.892;2023-04-03T17:09:22;10.70;74.00
52669;DHT22;59898;52.786;6.892;2023-04-03T17:12:43;10.80;74.30
52669;DHT22;59898;52.786;6.892;2023-04-03T17:16:06;10.70;73.50
52669;DHT22;59898;52.786;6.892;2023-04-03T17:19:28;10.50;73.90
52669;DHT22;59898;52.786;6.892;2023-04-03T17:22:48;10.30;74.40
52669;DHT22;59898;52.786;6.892;2023-04-03T17:26:09;10.20;74.60
52669;DHT22;59898;52.786;6.892;2023-04-03T17:29:30;10.10;74.90
52669;DHT22;59898;52.786;6.892;2023-04-03T17:32:51;10.00;75.20
52669;DHT22;59898;52.786;6.892;2023-04-03T17:36:11;10.00;75.50
52669;DHT22;59898;52.786;6.892;2023-04-03T17:39:32;10.00;76.00
52669;DHT22;59898;52.786;6.892;2023-04-03T17:42:53;10.00;76.20
52669;DHT22;59898;52.786;6.892;2023-04-03T17:46:14;9.90;76.40
52669;DHT22;59898;52.786;6.892;2023-04-03T17:49:36;9.80;76.80
52669;DHT22;59898;52.786;6.892;2023-04-03T17:52:57;9.60;77.50
52669;DHT22;59898;52.786;6.892;2023-04-03T17:56:20;9.60;78.10
52669;DHT22;59898;52.786;6.892;2023-04-03T17:59:42;9.50;78.30
52669;DHT22;59898;52.786;6.892;2023-04-03T18:03:03;9.40;78.90
52669;DHT22;59898;52.786;6.892;2023-04-03T18:06:30;9.40;79.60
52669;DHT22;59898;52.786;6.892;2023-04-03T18:09:51;9.40;80.10
52669;DHT22;59898;52.786;6.892;2023-04-03T18:13:12;9.50;80.50
52669;DHT22;59898;52.786;6.892;2023-04-03T18:16:34;9.40;81.20
52669;DHT22;59898;52.786;6.892;2023-04-03T18:19:54;9.30;81.90
52669;DHT22;59898;52.786;6.892;2023-04-03T18:23:15;9.20;82.50
52669;DHT22;59898;52.786;6.892;2023-04-03T18:26:36;9.10;83.20
52669;DHT22;59898;52.786;6.892;2023-04-03T18:30:00;9.00;83.60
52669;DHT22;59898;52.786;6.892;2023-04-03T18:33:22;8.80;84.20
52669;DHT22;59898;52.786;6.892;2023-04-03T18:36:42;8.70;84.60
52669;DHT22;59898;52.786;6.892;2023-04-03T18:40:04;8.60;85.70
52669;DHT22;59898;52.786;6.892;2023-04-03T18:43:25;8.50;86.20
52669;DHT22;59898;52.786;6.892;2023-04-03T18:46:46;8.40;86.80
52669;DHT22;59898;52.786;6.892;2023-04-03T18:50:07;8.30;87.90
52669;DHT22;59898;52.786;6.892;2023-04-03T18:53:28;8.20;88.10
52669;DHT22;59898;52.786;6.892;2023-04-03T18:56:49;8.20;89.20
52669;DHT22;59898;52.786;6.892;2023-04-03T19:00:10;8.00;90.00
52669;DHT22;59898;52.786;6.892;2023-04-03T19:03:32;7.90;90.20
52669;DHT22;59898;52.786;6.892;2023-04-03T19:06:54;7.90;90.60
52669;DHT22;59898;52.786;6.892;2023-04-03T19:10:16;7.80;90.80
52669;DHT22;59898;52.786;6.892;2023-04-03T19:13:37;7.70;91.10
52669;DHT22;59898;52.786;6.892;2023-04-03T19:16:57;7.60;91.50
52669;DHT22;59898;52.786;6.892;2023-04-03T19:20:18;7.50;92.10
52669;DHT22;59898;52.786;6.892;2023-04-03T19:23:39;7.50;92.20
52669;DHT22;59898;52.786;6.892;2023-04-03T19:27:02;7.50;92.30
52669;DHT22;59898;52.786;6.892;2023-04-03T19:30:23;7.70;92.40
52669;DHT22;59898;52.786;6.892;2023-04-03T19:33:44;7.80;92.50
52669;DHT22;59898;52.786;6.892;2023-04-03T19:37:05;7.80;92.40
52669;DHT22;59898;52.786;6.892;2023-04-03T19:40:28;7.80;92.60
52669;DHT22;59898;52.786;6.892;2023-04-03T19:43:50;7.50;92.80
52669;DHT22;59898;52.786;6.892;2023-04-03T19:47:11;7.30;93.40
52669;DHT22;59898;52.786;6.892;2023-04-03T19:50:35;7.00;94.00
52669;DHT22;59898;52.786;6.892;2023-04-03T19:53:56;6.80;94.20
52669;DHT22;59898;52.786;6.892;2023-04-03T19:57:17;6.80;94.50
52669;DHT22;59898;52.786;6.892;2023-04-03T20:00:37;6.80;94.70
52669;DHT22;59898;52.786;6.892;2023-04-03T20:03:58;6.70;94.90
52669;DHT22;59898;52.786;6.892;2023-04-03T20:07:19;6.70;95.00
52669;DHT22;59898;52.786;6.892;2023-04-03T20:10:40;6.70;95.30
52669;DHT22;59898;52.786;6.892;2023-04-03T20:14:01;6.60;95.50
52669;DHT22;59898;52.786;6.892;2023-04-03T20:17:21;6.60;95.40
52669;DHT22;59898;52.786;6.892;2023-04-03T20:20:57;6.60;95.60
52669;DHT22;59898;52.786;6.892;2023-04-03T20:24:18;6.50;96.40
52669;DHT22;59898;52.786;6.892;2023-04-03T20:27:39;6.40;96.10
52669;DHT22;59898;52.786;6.892;2023-04-03T20:31:00;6.40;96.30
52669;DHT22;59898;52.786;6.892;2023-04-03T20:34:23;6.30;96.80
52669;DHT22;59898;52.786;6.892;2023-04-03T20:37:43;6.20;97.10
52669;DHT22;59898;52.786;6.892;2023-04-03T20:41:05;6.10;97.40
52669;DHT22;59898;52.786;6.892;2023-04-03T20:44:25;6.00;98.00
52669;DHT22;59898;52.786;6.892;2023-04-03T20:47:47;5.90;98.40
52669;DHT22;59898;52.786;6.892;2023-04-03T20:51:10;6.00;98.50
52669;DHT22;59898;52.786;6.892;2023-04-03T20:54:31;6.00;99.00
52669;DHT22;59898;52.786;6.892;2023-04-03T20:57:53;6.00;98.80
52669;DHT22;59898;52.786;6.892;2023-04-03T21:01:20;6.00;98.90
52669;DHT22;59898;52.786;6.892;2023-04-03T21:04:48;6.10;99.00
52669;DHT22;59898;52.786;6.892;2023-04-03T21:19:26;6.70;99.90
52669;DHT22;59898;52.786;6.892;2023-04-03T21:22:47;5.80;99.90
52669;DHT22;59898;52.786;6.892;2023-04-03T21:26:09;5.70;99.90
52669;DHT22;59898;52.786;6.892;2023-04-03T21:29:30;5.50;99.90
52669;DHT22;59898;52.786;6.892;2023-04-03T21:32:51;5.80;99.90
52669;DHT22;59898;52.786;6.892;2023-04-03T21:36:11;5.40;99.90
52669;DHT22;59898;52.786;6.892;2023-04-03T21:39:32;5.40;99.90
52669;DHT22;59898;52.786;6.892;2023-04-03T21:42:53;5.30;99.90
52669;DHT22;59898;52.786;6.892;2023-04-03T21:46:14;5.40;99.90
52669;DHT22;59898;52.786;6.892;2023-04-03T21:49:35;5.20;99.90
52669;DHT22;59898;52.786;6.892;2023-04-03T21:52:55;5.10;99.90
52669;DHT22;59898;52.786;6.892;2023-04-03T21:56:16;5.10;99.90
52669;DHT22;59898;52.786;6.892;2023-04-03T21:59:37;5.00;99.90
52669;DHT22;59898;52.786;6.892;2023-04-03T22:02:58;5.00;99.90
52669;DHT22;59898;52.786;6.892;2023-04-03T22:06:19;5.30;99.90
52669;DHT22;59898;52.786;6.892;2023-04-03T22:09:40;4.80;99.90
52669;DHT22;59898;52.786;6.892;2023-04-03T22:13:00;4.70;99.90
52669;DHT22;59898;52.786;6.892;2023-04-03T22:16:21;4.70;99.90
52669;DHT22;59898;52.786;6.892;2023-04-03T22:19:42;4.60;99.90
52669;DHT22;59898;52.786;6.892;2023-04-03T22:23:03;4.60;99.90
52669;DHT22;59898;52.786;6.892;2023-04-03T22:26:25;4.50;99.90
52669;DHT22;59898;52.786;6.892;2023-04-03T22:29:46;4.70;99.90
52669;DHT22;59898;52.786;6.892;2023-04-03T22:33:07;4.60;99.90
52669;DHT22;59898;52.786;6.892;2023-04-03T22:36:27;4.70;99.90
52669;DHT22;59898;52.786;6.892;2023-04-03T22:39:48;4.50;99.90
52669;DHT22;59898;52.786;6.892;2023-04-03T22:43:09;4.50;99.90
52669;DHT22;59898;52.786;6.892;2023-04-03T22:46:30;4.50;99.90
52669;DHT22;59898;52.786;6.892;2023-04-03T22:49:51;4.50;99.90
52669;DHT22;59898;52.786;6.892;2023-04-03T22:53:13;4.50;99.90
52669;DHT22;59898;52.786;6.892;2023-04-03T22:56:35;4.40;99.90
52669;DHT22;59898;52.786;6.892;2023-04-03T22:59:55;4.40;99.90
52669;DHT22;59898;52.786;6.892;2023-04-03T23:03:16;4.30;99.90
52669;DHT22;59898;52.786;6.892;2023-04-03T23:06:36;4.50;99.90
52669;DHT22;59898;52.786;6.892;2023-04-03T23:09:57;4.20;99.90
52669;DHT22;59898;52.786;6.892;2023-04-03T23:13:18;4.30;99.90
52669;DHT22;59898;52.786;6.892;2023-04-03T23:16:39;4.00;99.90
52669;DHT22;59898;52.786;6.892;2023-04-03T23:20:01;4.40;99.90